sensor_id;sensor_type;location;lat;lon;timestamp;pressure;altitude;pressure_sealevel;temperature;humidity
45763;BME280;37512;52.408;13.356;2022-10-15T00:02:10;100402.94;;;12.15;100.00
45763;BME280;37512;52.408;13.356;2022-10-15T00:06:15;100397.84;;;12.24;100.00
45763;BME280;37512;52.408;13.356;2022-10-15T00:10:17;100391.56;;;12.34;100.00
45763;BME280;37512;52.408;13.356;2022-10-15T00:14:19;100385.19;;;12.30;100.00
45763;BME280;37512;52.408;13.356;2022-10-15T00:18:20;100373.28;;;12.33;100.00
45763;BME280;37512;52.408;13.356;2022-10-15T00:22:21;100372.00;;;12.24;100.00
45763;BME280;37512;52.408;13.356;2022-10-15T00:26:25;100361.81;;;12.39;100.00
45763;BME280;37512;52.408;13.356;2022-10-15T00:30:27;100360.88;;;12.20;100.00
45763;BME280;37512;52.408;13.356;2022-10-15T00:34:29;100360.56;;;12.32;100.00
45763;BME280;37512;52.408;13.356;2022-10-15T00:38:31;100368.06;;;12.28;100.00
45763;BME280;37512;52.408;13.356;2022-10-15T00:42:32;100359.03;;;12.39;100.00
45763;BME280;37512;52.408;13.356;2022-10-15T00:46:37;100358.13;;;12.27;100.00
45763;BME280;37512;52.408;13.356;2022-10-15T00:50:40;100369.69;;;12.29;100.00
45763;BME280;37512;52.408;13.356;2022-10-15T00:54:49;100366.03;;;12.22;100.00
45763;BME280;37512;52.408;13.356;2022-10-15T00:58:54;100356.03;;;12.13;100.00
45763;BME280;37512;52.408;13.356;2022-10-15T01:02:56;100341.78;;;12.22;100.00
45763;BME280;37512;52.408;13.356;2022-10-15T01:06:57;100337.81;;;12.23;100.00
45763;BME280;37512;52.408;13.356;2022-10-15T01:11:08;100330.31;;;12.27;100.00
45763;BME280;37512;52.408;13.356;2022-10-15T01:28:41;100329.94;;;12.32;100.00
45763;BME280;37512;52.408;13.356;2022-10-15T01:33:09;100316.88;;;12.40;100.00
45763;BME280;37512;52.408;13.356;2022-10-15T01:41:36;100314.38;;;12.24;100.00
45763;BME280;37512;52.408;13.356;2022-10-15T01:45:54;100310.84;;;12.27;100.00
45763;BME280;37512;52.408;13.356;2022-10-15T01:49:59;100306.47;;;12.33;100.00
45763;BME280;37512;52.408;13.356;2022-10-15T01:54:04;100300.44;;;12.21;100.00
45763;BME280;37512;52.408;13.356;2022-10-15T01:58:09;100300.94;;;12.37;100.00
45763;BME280;37512;52.408;13.356;2022-10-15T02:02:12;100292.16;;;12.31;100.00
45763;BME280;37512;52.408;13.356;2022-10-15T02:06:27;100290.88;;;12.18;100.00
45763;BME280;37512;52.408;13.356;2022-10-15T02:10:43;100284.97;;;12.27;100.00
45763;BME280;37512;52.408;13.356;2022-10-15T02:15:10;100282.63;;;12.32;100.00
45763;BME280;37512;52.408;13.356;2022-10-15T02:19:20;100285.78;;;12.27;100.00
45763;BME280;37512;52.408;13.356;2022-10-15T02:23:56;100294.16;;;12.31;100.00
45763;BME280;37512;52.408;13.356;2022-10-15T02:28:02;100284.22;;;12.30;100.00
45763;BME280;37512;52.408;13.356;2022-10-15T02:32:06;100282.13;;;12.20;100.00
45763;BME280;37512;52.408;13.356;2022-10-15T02:36:08;100277.44;;;12.31;100.00
45763;BME280;37512;52.408;13.356;2022-10-15T02:40:10;100274.28;;;12.32;100.00
45763;BME280;37512;52.408;13.356;2022-10-15T02:44:12;100271.47;;;12.29;100.00
45763;BME280;37512;52.408;13.356;2022-10-15T02:48:13;100273.03;;;12.23;100.00
45763;BME280;37512;52.408;13.356;2022-10-15T02:52:15;100264.69;;;12.26;100.00
45763;BME280;37512;52.408;13.356;2022-10-15T02:56:16;100268.31;;;12.30;100.00
45763;BME280;37512;52.408;13.356;2022-10-15T03:00:18;100259.91;;;12.23;100.00
45763;BME280;37512;52.408;13.356;2022-10-15T03:04:20;100261.50;;;12.21;100.00
45763;BME280;37512;52.408;13.356;2022-10-15T03:08:21;100264.25;;;12.17;100.00
45763;BME280;37512;52.408;13.356;2022-10-15T03:12:23;100271.00;;;12.16;100.00
45763;BME280;37512;52.408;13.356;2022-10-15T03:16:26;100267.06;;;12.21;100.00
45763;BME280;37512;52.408;13.356;2022-10-15T03:20:27;100261.91;;;12.26;100.00
45763;BME280;37512;52.408;13.356;2022-10-15T03:24:29;100257.09;;;12.20;100.00
45763;BME280;37512;52.408;13.356;2022-10-15T03:28:30;100252.00;;;12.25;100.00
45763;BME280;37512;52.408;13.356;2022-10-15T03:32:32;100240.06;;;12.25;100.00
45763;BME280;37512;52.408;13.356;2022-10-15T03:36:36;100246.47;;;12.32;100.00
45763;BME280;37512;52.408;13.356;2022-10-15T03:40:38;100249.16;;;12.22;100.00
45763;BME280;37512;52.408;13.356;2022-10-15T03:44:39;100237.66;;;12.27;100.00
45763;BME280;37512;52.408;13.356;2022-10-15T03:48:41;100226.88;;;12.14;100.00
45763;BME280;37512;52.408;13.356;2022-10-15T03:52:42;100236.75;;;12.08;100.00
45763;BME280;37512;52.408;13.356;2022-10-15T03:56:44;100239.91;;;12.03;100.00
45763;BME280;37512;52.408;13.356;2022-10-15T04:00:45;100245.47;;;12.00;100.00
45763;BME280;37512;52.408;13.356;2022-10-15T04:04:47;100244.25;;;12.01;100.00
45763;BME280;37512;52.408;13.356;2022-10-15T04:08:51;100231.94;;;11.98;100.00
45763;BME280;37512;52.408;13.356;2022-10-15T04:12:57;100244.13;;;11.86;100.00
45763;BME280;37512;52.408;13.356;2022-10-15T04:16:59;100244.47;;;11.81;100.00
45763;BME280;37512;52.408;13.356;2022-10-15T04:21:00;100247.25;;;11.81;100.00
45763;BME280;37512;52.408;13.356;2022-10-15T04:25:02;100256.31;;;11.71;100.00
45763;BME280;37512;52.408;13.356;2022-10-15T04:29:04;100255.47;;;11.67;100.00
45763;BME280;37512;52.408;13.356;2022-10-15T04:33:05;100257.34;;;11.52;100.00
45763;BME280;37512;52.408;13.356;2022-10-15T04:37:07;100268.53;;;11.59;100.00
45763;BME280;37512;52.408;13.356;2022-10-15T04:41:10;100261.41;;;11.62;100.00
45763;BME280;37512;52.408;13.356;2022-10-15T04:45:12;100267.72;;;11.59;100.00
45763;BME280;37512;52.408;13.356;2022-10-15T04:49:13;100262.47;;;11.50;100.00
45763;BME280;37512;52.408;13.356;2022-10-15T04:53:15;100264.84;;;11.51;100.00
45763;BME280;37512;52.408;13.356;2022-10-15T04:57:16;100266.53;;;11.60;100.00
45763;BME280;37512;52.408;13.356;2022-10-15T05:01:19;100264.59;;;11.67;100.00
45763;BME280;37512;52.408;13.356;2022-10-15T05:05:20;100269.50;;;11.81;100.00
45763;BME280;37512;52.408;13.356;2022-10-15T05:09:22;100265.91;;;11.77;100.00
45763;BME280;37512;52.408;13.356;2022-10-15T05:13:23;100263.53;;;11.79;100.00
45763;BME280;37512;52.408;13.356;2022-10-15T05:17:25;100255.47;;;11.67;100.00
45763;BME280;37512;52.408;13.356;2022-10-15T05:21:27;100248.38;;;11.73;100.00
45763;BME280;37512;52.408;13.356;2022-10-15T05:25:29;100257.94;;;11.76;100.00
45763;BME280;37512;52.408;13.356;2022-10-15T05:29:30;100260.50;;;11.50;100.00
45763;BME280;37512;52.408;13.356;2022-10-15T05:33:32;100265.63;;;11.45;100.00
45763;BME280;37512;52.408;13.356;2022-10-15T05:37:33;100272.94;;;11.64;100.00
45763;BME280;37512;52.408;13.356;2022-10-15T05:41:35;100277.69;;;11.63;100.00
45763;BME280;37512;52.408;13.356;2022-10-15T05:45:36;100293.53;;;11.59;100.00
45763;BME280;37512;52.408;13.356;2022-10-15T05:49:38;100280.84;;;11.62;100.00
45763;BME280;37512;52.408;13.356;2022-10-15T05:53:39;100289.88;;;11.51;100.00
45763;BME280;37512;52.408;13.356;2022-10-15T05:57:41;100290.78;;;11.63;100.00
45763;BME280;37512;52.408;13.356;2022-10-15T06:01:43;100292.88;;;11.73;100.00
45763;BME280;37512;52.408;13.356;2022-10-15T06:05:44;100294.09;;;11.76;100.00
45763;BME280;37512;52.408;13.356;2022-10-15T06:09:46;100303.88;;;11.62;100.00
45763;BME280;37512;52.408;13.356;2022-10-15T06:13:47;100309.13;;;11.71;100.00
45763;BME280;37512;52.408;13.356;2022-10-15T06:17:51;100309.63;;;11.80;100.00
45763;BME280;37512;52.408;13.356;2022-10-15T06:21:53;100308.94;;;11.90;100.00
45763;BME280;37512;52.408;13.356;2022-10-15T06:25:55;100301.84;;;11.97;100.00
45763;BME280;37512;52.408;13.356;2022-10-15T06:29:56;100309.84;;;12.05;100.00
45763;BME280;37512;52.408;13.356;2022-10-15T06:33:58;100303.56;;;12.12;100.00
45763;BME280;37512;52.408;13.356;2022-10-15T06:38:03;100304.28;;;12.05;100.00
45763;BME280;37512;52.408;13.356;2022-10-15T06:42:04;100306.69;;;12.07;100.00
45763;BME280;37512;52.408;13.356;2022-10-15T06:46:06;100320.34;;;12.23;100.00
45763;BME280;37512;52.408;13.356;2022-10-15T06:50:07;100328.72;;;12.30;100.00
45763;BME280;37512;52.408;13.356;2022-10-15T06:54:09;100343.72;;;12.14;100.00
45763;BME280;37512;52.408;13.356;2022-10-15T06:58:10;100340.19;;;12.21;100.00
45763;BME280;37512;52.408;13.356;2022-10-15T07:02:12;100345.75;;;12.21;100.00
45763;BME280;37512;52.408;13.356;2022-10-15T07:06:18;100354.22;;;12.35;100.00
45763;BME280;37512;52.408;13.356;2022-10-15T07:10:19;100365.09;;;12.55;100.00
45763;BME280;37512;52.408;13.356;2022-10-15T07:14:21;100362.81;;;12.71;100.00
45763;BME280;37512;52.408;13.356;2022-10-15T07:18:22;100365.97;;;12.66;100.00
45763;BME280;37512;52.408;13.356;2022-10-15T07:22:24;100369.66;;;12.85;100.00
45763;BME280;37512;52.408;13.356;2022-10-15T07:26:26;100358.97;;;12.94;100.00
45763;BME280;37512;52.408;13.356;2022-10-15T07:30:31;100351.06;;;13.03;100.00
45763;BME280;37512;52.408;13.356;2022-10-15T07:34:33;100350.81;;;13.33;100.00
45763;BME280;37512;52.408;13.356;2022-10-15T07:38:35;100350.41;;;13.28;100.00
45763;BME280;37512;52.408;13.356;2022-10-15T07:42:36;100351.63;;;13.45;100.00
45763;BME280;37512;52.408;13.356;2022-10-15T07:46:38;100341.59;;;13.26;100.00
45763;BME280;37512;52.408;13.356;2022-10-15T07:50:40;100350.50;;;13.60;100.00
45763;BME280;37512;52.408;13.356;2022-10-15T07:54:42;100352.53;;;13.81;100.00
45763;BME280;37512;52.408;13.356;2022-10-15T07:58:44;100358.41;;;13.47;100.00
45763;BME280;37512;52.408;13.356;2022-10-15T08:02:51;100353.66;;;13.58;100.00
45763;BME280;37512;52.408;13.356;2022-10-15T08:06:53;100354.53;;;14.02;100.00
45763;BME280;37512;52.408;13.356;2022-10-15T08:10:56;100345.38;;;14.05;100.00
45763;BME280;37512;52.408;13.356;2022-10-15T08:14:58;100356.91;;;14.00;100.00
45763;BME280;37512;52.408;13.356;2022-10-15T08:18:59;100354.16;;;14.32;100.00
45763;BME280;37512;52.408;13.356;2022-10-15T08:23:01;100363.72;;;14.35;100.00
45763;BME280;37512;52.408;13.356;2022-10-15T08:27:03;100362.50;;;14.50;100.00
45763;BME280;37512;52.408;13.356;2022-10-15T08:31:04;100364.06;;;14.91;100.00
45763;BME280;37512;52.408;13.356;2022-10-15T08:35:06;100356.13;;;14.68;100.00
45763;BME280;37512;52.408;13.356;2022-10-15T08:39:08;100361.28;;;14.83;100.00
45763;BME280;37512;52.408;13.356;2022-10-15T08:43:19;100368.31;;;15.31;100.00
45763;BME280;37512;52.408;13.356;2022-10-15T08:47:30;100373.41;;;15.54;100.00
45763;BME280;37512;52.408;13.356;2022-10-15T08:51:41;100369.31;;;15.73;100.00
45763;BME280;37512;52.408;13.356;2022-10-15T08:55:48;100381.19;;;15.92;100.00
45763;BME280;37512;52.408;13.356;2022-10-15T08:59:56;100380.53;;;15.66;100.00
45763;BME280;37512;52.408;13.356;2022-10-15T09:09:07;100387.75;;;15.67;100.00
45763;BME280;37512;52.408;13.356;2022-10-15T09:13:17;100373.41;;;15.54;100.00
45763;BME280;37512;52.408;13.356;2022-10-15T09:17:24;100385.28;;;15.83;100.00
45763;BME280;37512;52.408;13.356;2022-10-15T09:21:31;100382.16;;;15.63;100.00
45763;BME280;37512;52.408;13.356;2022-10-15T09:25:36;100389.84;;;15.45;100.00
45763;BME280;37512;52.408;13.356;2022-10-15T09:30:03;100391.81;;;16.22;100.00
45763;BME280;37512;52.408;13.356;2022-10-15T09:34:30;100384.53;;;16.73;100.00
45763;BME280;37512;52.408;13.356;2022-10-15T09:38:47;100382.00;;;16.89;100.00
45763;BME280;37512;52.408;13.356;2022-10-15T09:42:51;100393.34;;;16.75;100.00
45763;BME280;37512;52.408;13.356;2022-10-15T09:46:53;100400.03;;;16.43;100.00
45763;BME280;37512;52.408;13.356;2022-10-15T09:51:44;100399.03;;;16.64;100.00
45763;BME280;37512;52.408;13.356;2022-10-15T09:55:33;100404.13;;;16.80;100.00
45763;BME280;37512;52.408;13.356;2022-10-15T09:59:35;100402.75;;;16.50;100.00
45763;BME280;37512;52.408;13.356;2022-10-15T10:03:37;100401.44;;;16.66;100.00
45763;BME280;37512;52.408;13.356;2022-10-15T10:07:38;100398.88;;;16.37;100.00
45763;BME280;37512;52.408;13.356;2022-10-15T10:11:53;100411.94;;;16.51;100.00
45763;BME280;37512;52.408;13.356;2022-10-15T10:15:55;100413.69;;;16.83;100.00
45763;BME280;37512;52.408;13.356;2022-10-15T10:24:36;100400.00;;;17.26;100.00
45763;BME280;37512;52.408;13.356;2022-10-15T10:28:52;100412.56;;;17.49;100.00
45763;BME280;37512;52.408;13.356;2022-10-15T10:33:01;100406.75;;;17.32;100.00
45763;BME280;37512;52.408;13.356;2022-10-15T10:37:03;100405.19;;;17.31;100.00
45763;BME280;37512;52.408;13.356;2022-10-15T10:41:08;100410.63;;;17.11;100.00
45763;BME280;37512;52.408;13.356;2022-10-15T10:45:21;100418.22;;;16.69;100.00
45763;BME280;37512;52.408;13.356;2022-10-15T10:49:39;100412.06;;;17.23;100.00
45763;BME280;37512;52.408;13.356;2022-10-15T10:53:51;100420.34;;;17.00;100.00
45763;BME280;37512;52.408;13.356;2022-10-15T10:57:58;100418.78;;;16.50;100.00
45763;BME280;37512;52.408;13.356;2022-10-15T11:02:02;100426.97;;;16.75;100.00
45763;BME280;37512;52.408;13.356;2022-10-15T11:06:21;100410.22;;;16.68;100.00
45763;BME280;37512;52.408;13.356;2022-10-15T11:10:40;100411.94;;;17.00;100.00
45763;BME280;37512;52.408;13.356;2022-10-15T11:15:13;100412.69;;;17.72;100.00
45763;BME280;37512;52.408;13.356;2022-10-15T11:37:27;100398.31;;;17.97;100.00
45763;BME280;37512;52.408;13.356;2022-10-15T11:41:49;100396.22;;;18.29;100.00
45763;BME280;37512;52.408;13.356;2022-10-15T11:46:13;100381.50;;;17.94;100.00
45763;BME280;37512;52.408;13.356;2022-10-15T11:55:04;100397.47;;;19.38;96.48
45763;BME280;37512;52.408;13.356;2022-10-15T12:03:20;100395.03;;;18.77;98.40
45763;BME280;37512;52.408;13.356;2022-10-15T12:07:27;100391.25;;;18.13;100.00
45763;BME280;37512;52.408;13.356;2022-10-15T12:11:40;100396.00;;;17.27;100.00
45763;BME280;37512;52.408;13.356;2022-10-15T12:16:02;100388.22;;;17.08;100.00
45763;BME280;37512;52.408;13.356;2022-10-15T12:20:15;100394.34;;;16.99;100.00
45763;BME280;37512;52.408;13.356;2022-10-15T12:28:46;100401.94;;;16.99;100.00
45763;BME280;37512;52.408;13.356;2022-10-15T12:32:49;100402.38;;;16.97;100.00
45763;BME280;37512;52.408;13.356;2022-10-15T12:37:03;100413.59;;;16.93;100.00
45763;BME280;37512;52.408;13.356;2022-10-15T12:41:08;100402.84;;;16.88;100.00
45763;BME280;37512;52.408;13.356;2022-10-15T12:45:25;100400.34;;;16.98;100.00
45763;BME280;37512;52.408;13.356;2022-10-15T12:53:40;100393.91;;;17.01;100.00
45763;BME280;37512;52.408;13.356;2022-10-15T13:05:45;100393.97;;;16.93;100.00
45763;BME280;37512;52.408;13.356;2022-10-15T13:09:51;100386.44;;;16.87;100.00
45763;BME280;37512;52.408;13.356;2022-10-15T13:18:20;100385.78;;;17.10;100.00
45763;BME280;37512;52.408;13.356;2022-10-15T13:22:26;100386.84;;;17.23;100.00
45763;BME280;37512;52.408;13.356;2022-10-15T13:26:28;100391.16;;;17.31;100.00
45763;BME280;37512;52.408;13.356;2022-10-15T13:30:30;100386.63;;;17.07;100.00
45763;BME280;37512;52.408;13.356;2022-10-15T13:34:34;100388.75;;;16.96;100.00
45763;BME280;37512;52.408;13.356;2022-10-15T13:38:37;100388.41;;;16.90;100.00
45763;BME280;37512;52.408;13.356;2022-10-15T13:42:57;100383.56;;;16.94;100.00
45763;BME280;37512;52.408;13.356;2022-10-15T13:46:59;100388.00;;;17.26;100.00
45763;BME280;37512;52.408;13.356;2022-10-15T13:51:03;100383.66;;;17.21;100.00
45763;BME280;37512;52.408;13.356;2022-10-15T13:55:15;100378.59;;;17.09;100.00
45763;BME280;37512;52.408;13.356;2022-10-15T13:59:18;100385.25;;;17.53;100.00
45763;BME280;37512;52.408;13.356;2022-10-15T14:03:23;100374.34;;;16.93;100.00
45763;BME280;37512;52.408;13.356;2022-10-15T14:07:25;100375.91;;;16.98;100.00
45763;BME280;37512;52.408;13.356;2022-10-15T14:11:28;100389.06;;;16.60;100.00
45763;BME280;37512;52.408;13.356;2022-10-15T14:15:50;100381.78;;;17.45;100.00
45763;BME280;37512;52.408;13.356;2022-10-15T14:19:57;100381.25;;;18.12;100.00
45763;BME280;37512;52.408;13.356;2022-10-15T14:24:22;100385.44;;;18.51;100.00
45763;BME280;37512;52.408;13.356;2022-10-15T14:28:26;100382.47;;;19.05;98.60
45763;BME280;37512;52.408;13.356;2022-10-15T14:36:43;100384.19;;;18.28;100.00
45763;BME280;37512;52.408;13.356;2022-10-15T14:41:46;100384.72;;;18.19;100.00
45763;BME280;37512;52.408;13.356;2022-10-15T14:45:28;100400.06;;;18.15;100.00
45763;BME280;37512;52.408;13.356;2022-10-15T14:49:32;100390.31;;;17.96;100.00
45763;BME280;37512;52.408;13.356;2022-10-15T14:53:37;100381.63;;;18.37;100.00
45763;BME280;37512;52.408;13.356;2022-10-15T14:57:41;100387.25;;;17.87;100.00
45763;BME280;37512;52.408;13.356;2022-10-15T15:01:52;100390.75;;;17.64;100.00
45763;BME280;37512;52.408;13.356;2022-10-15T15:05:58;100393.75;;;17.76;100.00
45763;BME280;37512;52.408;13.356;2022-10-15T15:10:00;100396.41;;;17.26;100.00
45763;BME280;37512;52.408;13.356;2022-10-15T15:14:01;100403.78;;;17.12;100.00
45763;BME280;37512;52.408;13.356;2022-10-15T15:18:04;100403.09;;;16.60;100.00
45763;BME280;37512;52.408;13.356;2022-10-15T15:22:08;100393.22;;;16.89;100.00
45763;BME280;37512;52.408;13.356;2022-10-15T15:26:11;100398.38;;;16.95;100.00
45763;BME280;37512;52.408;13.356;2022-10-15T15:30:16;100389.06;;;17.01;100.00
45763;BME280;37512;52.408;13.356;2022-10-15T15:34:18;100391.56;;;16.96;100.00
45763;BME280;37512;52.408;13.356;2022-10-15T15:38:21;100394.91;;;16.76;100.00
45763;BME280;37512;52.408;13.356;2022-10-15T15:42:23;100400.50;;;16.83;100.00
45763;BME280;37512;52.408;13.356;2022-10-15T15:46:26;100398.53;;;16.77;100.00
45763;BME280;37512;52.408;13.356;2022-10-15T15:50:28;100401.03;;;16.64;100.00
45763;BME280;37512;52.408;13.356;2022-10-15T15:54:29;100399.56;;;16.48;100.00
45763;BME280;37512;52.408;13.356;2022-10-15T15:58:31;100404.13;;;16.31;100.00
45763;BME280;37512;52.408;13.356;2022-10-15T16:02:32;100409.34;;;16.26;100.00
45763;BME280;37512;52.408;13.356;2022-10-15T16:06:34;100411.81;;;16.20;100.00
45763;BME280;37512;52.408;13.356;2022-10-15T16:10:35;100404.91;;;15.76;100.00
45763;BME280;37512;52.408;13.356;2022-10-15T16:14:36;100409.56;;;15.97;100.00
45763;BME280;37512;52.408;13.356;2022-10-15T16:18:38;100415.56;;;15.99;100.00
45763;BME280;37512;52.408;13.356;2022-10-15T16:22:40;100414.38;;;15.93;100.00
45763;BME280;37512;52.408;13.356;2022-10-15T16:26:42;100422.00;;;15.89;100.00
45763;BME280;37512;52.408;13.356;2022-10-15T16:30:44;100427.34;;;15.58;100.00
45763;BME280;37512;52.408;13.356;2022-10-15T16:34:45;100417.81;;;15.34;100.00
45763;BME280;37512;52.408;13.356;2022-10-15T16:38:47;100422.63;;;15.30;100.00
45763;BME280;37512;52.408;13.356;2022-10-15T16:42:48;100418.25;;;15.29;100.00
45763;BME280;37512;52.408;13.356;2022-10-15T16:46:50;100428.72;;;15.03;100.00
45763;BME280;37512;52.408;13.356;2022-10-15T16:55:03;100443.13;;;14.88;100.00
45763;BME280;37512;52.408;13.356;2022-10-15T16:59:05;100443.50;;;14.79;100.00
45763;BME280;37512;52.408;13.356;2022-10-15T17:03:06;100453.50;;;14.83;100.00
45763;BME280;37512;52.408;13.356;2022-10-15T17:07:08;100457.88;;;14.84;100.00
45763;BME280;37512;52.408;13.356;2022-10-15T17:15:23;100465.41;;;14.48;100.00
45763;BME280;37512;52.408;13.356;2022-10-15T17:19:24;100470.66;;;14.57;100.00
45763;BME280;37512;52.408;13.356;2022-10-15T17:23:32;100469.41;;;14.43;100.00
45763;BME280;37512;52.408;13.356;2022-10-15T17:27:33;100463.03;;;14.43;100.00
45763;BME280;37512;52.408;13.356;2022-10-15T17:31:36;100481.38;;;14.40;100.00
45763;BME280;37512;52.408;13.356;2022-10-15T17:35:38;100480.56;;;14.43;100.00
45763;BME280;37512;52.408;13.356;2022-10-15T17:39:39;100482.56;;;14.32;100.00
45763;BME280;37512;52.408;13.356;2022-10-15T17:43:41;100483.34;;;14.29;100.00
45763;BME280;37512;52.408;13.356;2022-10-15T17:47:43;100489.72;;;14.19;100.00
45763;BME280;37512;52.408;13.356;2022-10-15T17:51:48;100479.31;;;14.01;100.00
45763;BME280;37512;52.408;13.356;2022-10-15T17:55:50;100478.16;;;14.10;100.00
45763;BME280;37512;52.408;13.356;2022-10-15T17:59:51;100473.75;;;14.05;100.00
45763;BME280;37512;52.408;13.356;2022-10-15T18:03:53;100472.97;;;14.15;100.00
45763;BME280;37512;52.408;13.356;2022-10-15T18:07:55;100480.53;;;14.11;100.00
45763;BME280;37512;52.408;13.356;2022-10-15T18:11:58;100481.69;;;14.07;100.00
45763;BME280;37512;52.408;13.356;2022-10-15T18:16:03;100486.16;;;14.26;100.00
45763;BME280;37512;52.408;13.356;2022-10-15T18:20:05;100486.91;;;14.12;100.00
45763;BME280;37512;52.408;13.356;2022-10-15T18:24:07;100483.69;;;14.02;100.00
45763;BME280;37512;52.408;13.356;2022-10-15T18:28:12;100493.66;;;14.04;100.00
45763;BME280;37512;52.408;13.356;2022-10-15T18:32:14;100497.25;;;14.04;100.00
45763;BME280;37512;52.408;13.356;2022-10-15T18:36:27;100493.66;;;14.04;100.00
45763;BME280;37512;52.408;13.356;2022-10-15T18:40:36;100504.47;;;14.12;100.00
45763;BME280;37512;52.408;13.356;2022-10-15T18:44:41;100506.81;;;14.03;100.00
45763;BME280;37512;52.408;13.356;2022-10-15T18:48:48;100507.19;;;13.94;100.00
45763;BME280;37512;52.408;13.356;2022-10-15T18:52:51;100501.66;;;14.05;100.00
45763;BME280;37512;52.408;13.356;2022-10-15T18:56:52;100490.06;;;13.96;100.00
45763;BME280;37512;52.408;13.356;2022-10-15T19:00:56;100501.22;;;13.99;100.00
45763;BME280;37512;52.408;13.356;2022-10-15T19:05:00;100505.97;;;13.88;100.00
45763;BME280;37512;52.408;13.356;2022-10-15T19:09:05;100499.63;;;13.91;100.00
45763;BME280;37512;52.408;13.356;2022-10-15T19:13:07;100499.19;;;13.86;100.00
45763;BME280;37512;52.408;13.356;2022-10-15T19:17:09;100495.97;;;13.76;100.00
45763;BME280;37512;52.408;13.356;2022-10-15T19:21:10;100503.56;;;13.83;100.00
45763;BME280;37512;52.408;13.356;2022-10-15T19:25:12;100503.13;;;13.77;100.00
45763;BME280;37512;52.408;13.356;2022-10-15T19:29:13;100509.09;;;13.72;100.00
45763;BME280;37512;52.408;13.356;2022-10-15T19:33:15;100511.53;;;13.88;100.00
45763;BME280;37512;52.408;13.356;2022-10-15T19:37:16;100524.25;;;13.82;100.00
45763;BME280;37512;52.408;13.356;2022-10-15T19:41:18;100520.28;;;13.83;100.00
45763;BME280;37512;52.408;13.356;2022-10-15T19:45:20;100510.72;;;13.80;100.00
45763;BME280;37512;52.408;13.356;2022-10-15T19:49:22;100510.31;;;13.82;100.00
45763;BME280;37512;52.408;13.356;2022-10-15T19:53:23;100504.34;;;13.80;100.00
45763;BME280;37512;52.408;13.356;2022-10-15T19:57:25;100513.09;;;13.82;100.00
45763;BME280;37512;52.408;13.356;2022-10-15T20:01:27;100512.66;;;13.73;100.00
45763;BME280;37512;52.408;13.356;2022-10-15T20:05:29;100523.38;;;13.64;100.00
45763;BME280;37512;52.408;13.356;2022-10-15T20:09:30;100534.06;;;13.47;100.00
45763;BME280;37512;52.408;13.356;2022-10-15T20:13:32;100532.91;;;13.59;100.00
45763;BME280;37512;52.408;13.356;2022-10-15T20:17:34;100543.66;;;13.57;100.00
45763;BME280;37512;52.408;13.356;2022-10-15T20:21:36;100545.69;;;13.60;100.00
45763;BME280;37512;52.408;13.356;2022-10-15T20:25:38;100552.50;;;13.70;100.00
45763;BME280;37512;52.408;13.356;2022-10-15T20:29:39;100546.53;;;13.71;100.00
45763;BME280;37512;52.408;13.356;2022-10-15T20:33:42;100551.25;;;13.64;100.00
45763;BME280;37512;52.408;13.356;2022-10-15T20:37:43;100553.25;;;13.63;100.00
45763;BME280;37512;52.408;13.356;2022-10-15T20:41:45;100567.16;;;13.56;100.00
45763;BME280;37512;52.408;13.356;2022-10-15T20:45:47;100559.56;;;13.49;100.00
45763;BME280;37512;52.408;13.356;2022-10-15T20:49:50;100562.22;;;13.28;100.00
45763;BME280;37512;52.408;13.356;2022-10-15T20:53:52;100578.06;;;13.24;100.00
45763;BME280;37512;52.408;13.356;2022-10-15T20:57:54;100574.56;;;13.30;100.00
45763;BME280;37512;52.408;13.356;2022-10-15T21:01:56;100577.69;;;13.25;100.00
45763;BME280;37512;52.408;13.356;2022-10-15T21:05:57;100586.00;;;13.22;100.00
45763;BME280;37512;52.408;13.356;2022-10-15T21:09:59;100586.19;;;13.39;100.00
45763;BME280;37512;52.408;13.356;2022-10-15T21:14:00;100591.72;;;13.36;100.00
45763;BME280;37512;52.408;13.356;2022-10-15T21:18:02;100595.34;;;13.40;100.00
45763;BME280;37512;52.408;13.356;2022-10-15T21:22:03;100593.38;;;13.44;100.00
45763;BME280;37512;52.408;13.356;2022-10-15T21:26:08;100588.25;;;13.53;100.00
45763;BME280;37512;52.408;13.356;2022-10-15T21:30:10;100588.19;;;13.43;100.00
45763;BME280;37512;52.408;13.356;2022-10-15T21:34:13;100583.44;;;13.47;100.00
45763;BME280;37512;52.408;13.356;2022-10-15T21:38:14;100594.16;;;13.41;100.00
45763;BME280;37512;52.408;13.356;2022-10-15T21:42:16;100595.38;;;13.47;100.00
45763;BME280;37512;52.408;13.356;2022-10-15T21:46:18;100595.16;;;13.22;100.00
45763;BME280;37512;52.408;13.356;2022-10-15T21:50:19;100597.75;;;13.45;100.00
45763;BME280;37512;52.408;13.356;2022-10-15T21:54:20;100598.13;;;13.40;100.00
45763;BME280;37512;52.408;13.356;2022-10-15T21:58:22;100609.16;;;13.26;100.00
45763;BME280;37512;52.408;13.356;2022-10-15T22:02:23;100610.47;;;13.39;100.00
45763;BME280;37512;52.408;13.356;2022-10-15T22:06:25;100623.97;;;13.33;100.00
45763;BME280;37512;52.408;13.356;2022-10-15T22:10:27;100628.78;;;13.40;100.00
45763;BME280;37512;52.408;13.356;2022-10-15T22:14:29;100624.41;;;13.39;100.00